»·PEaware :: N373EB KWHP-KTUS

N373EB :: KWHP-KTUS

FLIGHT INFORMATION

Flight Status: Arrived
Operator: Privately registered:
United States
More flights under this callsign
Pilot: Peder R. (40111)
Aircraft: BEECH AIRCRAFT DEBONAIR BONANZA
(BE33)
More flights by this aircraft type
Origin: KWHP Whiteman
United States
Destination: KTUS Tucson Intl
United States
More flights between these airports :: More routes between these airports
Route: WHP1 VNY V186 NIKKL V64 TRM BLH V94 GBN V66 TUS
File this flight plan on PilotEdge
Remarks:
Altitude:
(Current/Filed)
13,000ft
Speed:
(Current/Filed)
155kts
Departed: 28-Sep-23 10:37 AM
Arrived: 28-Sep-23 01:54 PM
Distance/Time
Traveled:
396nm/3:17
Distance/Time
To Go:
Arrived

Flight Plot

Page will automatically refresh every two minutes.

Flight plan parsing failed; only flown route is shown


Map Options




Map Legend


Flown Route
Filed Route
Departure Airport
Arrival Airport
Navaid (VOR, NDB)
Fix

Horizontal Profiles

Position Reports

Time Latitude Longitude Heading Altitude Ground
Speed
28-Sep-23 10:21 34.259431 -118.412325 318 991ft 0kts
28-Sep-23 10:22 34.259431 -118.412325 318 991ft 0kts
28-Sep-23 10:23 34.259431 -118.412325 318 991ft 0kts
28-Sep-23 10:24 34.259431 -118.412325 318 991ft 0kts
28-Sep-23 10:25 34.259431 -118.412325 318 991ft 0kts
28-Sep-23 10:26 34.259431 -118.412325 318 991ft 0kts
28-Sep-23 10:27 34.259431 -118.412325 318 991ft 0kts
28-Sep-23 10:28 34.259482 -118.412445 247 991ft 4kts
28-Sep-23 10:29 34.257693 -118.411121 141 981ft 11kts
28-Sep-23 10:30 34.256967 -118.410052 150 976ft 0kts
28-Sep-23 10:31 34.256967 -118.410052 150 976ft 0kts
28-Sep-23 10:32 34.256687 -118.410021 152 975ft 5kts
28-Sep-23 10:33 34.255650 -118.408948 144 970ft 0kts
28-Sep-23 10:34 34.255650 -118.408948 144 970ft 0kts
28-Sep-23 10:35 34.255264 -118.409203 318 969ft 8kts
28-Sep-23 10:36 34.270620 -118.426402 302 1533ft 94kts
28-Sep-23 10:37 34.273936 -118.458400 275 2485ft 98kts
28-Sep-23 10:38 34.274728 -118.492769 272 3305ft 103kts
28-Sep-23 10:39 34.287190 -118.519172 341 4110ft 99kts
28-Sep-23 10:40 34.312118 -118.534094 298 4872ft 110kts
28-Sep-23 10:41 34.292797 -118.550953 139 5642ft 110kts
28-Sep-23 10:42 34.269064 -118.528431 138 6412ft 110kts
28-Sep-23 10:43 34.243304 -118.507269 136 7001ft 122kts
28-Sep-23 10:44 34.216567 -118.473199 106 7023ft 149kts
28-Sep-23 10:45 34.202707 -118.423854 114 6961ft 162kts
28-Sep-23 10:46 34.187365 -118.372714 115 6983ft 155kts
28-Sep-23 10:47 34.171767 -118.324813 113 6981ft 154kts
28-Sep-23 10:48 34.158064 -118.276175 116 6996ft 153kts
28-Sep-23 10:49 34.143168 -118.227045 114 7008ft 154kts
28-Sep-23 10:50 34.128584 -118.178132 104 7089ft 151kts
28-Sep-23 10:51 34.113127 -118.129662 106 7066ft 152kts
28-Sep-23 10:52 34.098231 -118.080852 106 7083ft 146kts
28-Sep-23 10:53 34.085915 -118.040889 106 8011ft 111kts
28-Sep-23 10:54 34.075249 -118.006378 108 8595ft 112kts
28-Sep-23 10:55 34.064262 -117.971186 104 8985ft 122kts
28-Sep-23 10:56 34.051354 -117.928769 112 8987ft 145kts
28-Sep-23 10:57 34.037927 -117.881965 123 8938ft 145kts
28-Sep-23 10:58 34.016644 -117.839984 132 8870ft 144kts
28-Sep-23 10:59 33.994749 -117.801177 128 9053ft 134kts
28-Sep-23 11:00 33.971754 -117.763329 122 9058ft 139kts
28-Sep-23 11:01 33.961758 -117.717928 111 9370ft 126kts
28-Sep-23 11:02 33.950526 -117.676123 111 9754ft 117kts
28-Sep-23 11:03 33.942299 -117.640367 117 10245ft 111kts
28-Sep-23 11:04 33.936260 -117.604903 108 10771ft 104kts
28-Sep-23 11:05 33.926026 -117.572406 116 11209ft 101kts
28-Sep-23 11:06 33.913421 -117.541479 114 11600ft 102kts
28-Sep-23 11:07 33.903227 -117.509078 110 11980ft 101kts
28-Sep-23 11:08 33.893129 -117.477010 110 12366ft 100kts
28-Sep-23 11:09 33.882824 -117.445670 111 12755ft 98kts
28-Sep-23 11:10 33.872683 -117.414444 111 13013ft 106kts
28-Sep-23 11:11 33.860606 -117.377196 111 12998ft 127kts
28-Sep-23 11:12 33.847191 -117.335605 112 12994ft 133kts
28-Sep-23 11:13 33.833267 -117.293404 113 12993ft 134kts
28-Sep-23 11:14 33.818439 -117.251696 113 12993ft 134kts
28-Sep-23 11:15 33.803635 -117.209823 112 12993ft 134kts
28-Sep-23 11:16 33.789496 -117.167679 112 12993ft 134kts
28-Sep-23 11:17 33.775340 -117.125453 112 12993ft 134kts
28-Sep-23 11:18 33.761294 -117.083189 112 12992ft 135kts
28-Sep-23 11:19 33.746937 -117.041078 113 12992ft 137kts
28-Sep-23 11:20 33.732516 -116.998496 113 12992ft 139kts
28-Sep-23 11:21 33.718257 -116.955800 113 13098ft 135kts
28-Sep-23 11:22 33.702714 -116.912880 115 13102ft 141kts
28-Sep-23 11:23 33.690341 -116.867234 99 13099ft 146kts
28-Sep-23 11:24 33.685740 -116.817509 98 13078ft 149kts
28-Sep-23 11:25 33.681282 -116.767160 98 13056ft 149kts
28-Sep-23 11:26 33.676838 -116.716854 98 13035ft 150kts
28-Sep-23 11:27 33.672421 -116.666579 98 13014ft 149kts
28-Sep-23 11:28 33.668019 -116.616312 98 12998ft 149kts
28-Sep-23 11:29 33.663670 -116.566384 98 12994ft 148kts
28-Sep-23 11:30 33.659355 -116.516675 98 12989ft 147kts
28-Sep-23 11:31 33.655041 -116.467058 98 12983ft 147kts
28-Sep-23 11:32 33.650710 -116.417345 98 12977ft 148kts
28-Sep-23 11:33 33.646434 -116.367857 98 12973ft 147kts
28-Sep-23 11:34 33.642149 -116.318408 98 12971ft 147kts
28-Sep-23 11:35 33.637837 -116.268809 98 12968ft 147kts
28-Sep-23 11:36 33.633554 -116.219353 98 12966ft 147kts
28-Sep-23 11:37 33.629283 -116.169942 98 12964ft 147kts
28-Sep-23 11:38 33.627961 -116.119749 93 12964ft 148kts
28-Sep-23 11:39 33.627154 -116.070536 94 13001ft 146kts
28-Sep-23 11:40 33.625979 -116.021417 94 13001ft 147kts
28-Sep-23 11:42 33.625250 -115.971920 93 13000ft 147kts
28-Sep-23 11:43 33.624464 -115.922557 94 13000ft 147kts
28-Sep-23 11:44 33.623283 -115.872848 94 13000ft 147kts
28-Sep-23 11:45 33.622137 -115.823558 94 13000ft 147kts
28-Sep-23 11:46 33.620995 -115.774019 94 13000ft 147kts
28-Sep-23 11:47 33.619869 -115.724626 94 13000ft 147kts
28-Sep-23 11:48 33.618755 -115.675370 94 13000ft 147kts
28-Sep-23 11:49 33.617622 -115.625814 94 13000ft 147kts
28-Sep-23 11:50 33.616511 -115.576333 94 13000ft 147kts
28-Sep-23 11:51 33.615413 -115.526713 94 13000ft 147kts
28-Sep-23 11:52 33.614281 -115.476782 94 12972ft 148kts
28-Sep-23 11:53 33.613177 -115.426676 93 12973ft 148kts
28-Sep-23 11:54 33.612064 -115.377093 93 12978ft 147kts
28-Sep-23 11:55 33.610595 -115.327763 94 12985ft 147kts
28-Sep-23 11:56 33.609512 -115.278433 94 12991ft 147kts
28-Sep-23 11:57 33.608458 -115.228978 94 12997ft 147kts
28-Sep-23 11:58 33.607423 -115.179610 94 13000ft 147kts
28-Sep-23 11:59 33.606455 -115.130075 94 13000ft 148kts
28-Sep-23 12:00 33.605331 -115.080487 95 13000ft 148kts
28-Sep-23 12:01 33.603747 -115.030778 95 13000ft 148kts
28-Sep-23 12:02 33.602192 -114.980947 95 13000ft 149kts
28-Sep-23 12:03 33.600640 -114.930566 95 13001ft 150kts
28-Sep-23 12:04 33.599093 -114.879964 95 13000ft 150kts
28-Sep-23 12:05 33.597556 -114.829261 95 13000ft 150kts
28-Sep-23 12:06 33.596022 -114.778350 95 13000ft 150kts
28-Sep-23 12:07 33.593724 -114.727828 98 13000ft 150kts
28-Sep-23 12:08 33.589972 -114.677541 97 13000ft 150kts
28-Sep-23 12:08 33.587084 -114.635502 96 13000ft 150kts
28-Sep-23 12:10 33.583611 -114.576890 96 13000ft 150kts
28-Sep-23 12:11 33.580634 -114.526402 96 13000ft 150kts
28-Sep-23 12:12 33.577558 -114.475897 97 12984ft 151kts
28-Sep-23 12:12 33.574416 -114.433434 97 12972ft 151kts
28-Sep-23 12:13 33.570681 -114.382671 97 12972ft 151kts
28-Sep-23 12:15 33.566319 -114.323707 98 12945ft 151kts
28-Sep-23 12:16 33.563123 -114.273020 97 12946ft 151kts
28-Sep-23 12:16 33.560275 -114.230707 98 12946ft 151kts
28-Sep-23 12:17 33.556569 -114.180218 98 12945ft 150kts
28-Sep-23 12:18 33.552912 -114.129900 98 12945ft 150kts
28-Sep-23 12:19 33.549262 -114.079432 97 12945ft 150kts
28-Sep-23 12:20 33.545628 -114.028991 97 12945ft 150kts
28-Sep-23 12:21 33.542003 -113.978649 97 12945ft 149kts
28-Sep-23 12:22 33.533034 -113.930555 119 12946ft 146kts
28-Sep-23 12:23 33.513367 -113.887218 120 12945ft 146kts
28-Sep-23 12:24 33.493575 -113.843834 120 12945ft 146kts
28-Sep-23 12:25 33.473904 -113.800668 120 12945ft 146kts
28-Sep-23 12:26 33.454111 -113.757249 120 12945ft 146kts
28-Sep-23 12:27 33.434496 -113.714166 120 12954ft 146kts
28-Sep-23 12:28 33.414871 -113.671050 120 12964ft 146kts
28-Sep-23 12:29 33.395248 -113.627880 120 12974ft 145kts
28-Sep-23 12:30 33.375567 -113.584533 120 12983ft 145kts
28-Sep-23 12:31 33.356079 -113.541595 120 12993ft 145kts
28-Sep-23 12:32 33.336616 -113.498663 120 13000ft 145kts
28-Sep-23 12:33 33.317149 -113.455695 120 13000ft 146kts
28-Sep-23 12:34 33.297561 -113.412438 120 12999ft 146kts
28-Sep-23 12:35 33.278040 -113.369315 120 12999ft 146kts
28-Sep-23 12:36 33.258544 -113.326251 120 12997ft 146kts
28-Sep-23 12:37 33.238767 -113.283024 121 12993ft 146kts
28-Sep-23 12:38 33.218573 -113.240285 121 12990ft 146kts
28-Sep-23 12:39 33.198701 -113.196837 120 12986ft 147kts
28-Sep-23 12:40 33.178292 -113.153512 121 12982ft 146kts
28-Sep-23 12:41 33.158100 -113.110721 121 12979ft 146kts
28-Sep-23 12:42 33.138451 -113.067650 120 12976ft 146kts
28-Sep-23 12:43 33.118906 -113.024330 120 12972ft 146kts
28-Sep-23 12:44 33.099395 -112.981148 120 12972ft 146kts
28-Sep-23 12:45 33.079973 -112.938098 120 12972ft 145kts
28-Sep-23 12:46 33.060204 -112.895630 121 12972ft 145kts
28-Sep-23 12:47 33.040395 -112.852980 121 12971ft 145kts
28-Sep-23 12:48 33.020901 -112.810479 121 12971ft 145kts
28-Sep-23 12:49 33.000983 -112.768144 122 12971ft 145kts
28-Sep-23 12:50 32.981149 -112.725985 123 12971ft 144kts
28-Sep-23 12:51 32.961015 -112.684007 123 12971ft 144kts
28-Sep-23 12:52 32.941029 -112.642003 123 12971ft 144kts
28-Sep-23 12:53 32.921077 -112.600037 123 12971ft 144kts
28-Sep-23 12:54 32.900947 -112.558239 124 12970ft 144kts
28-Sep-23 12:55 32.880237 -112.516453 124 12974ft 145kts
28-Sep-23 12:56 32.859453 -112.474563 124 12974ft 145kts
28-Sep-23 12:57 32.838811 -112.432943 124 12974ft 146kts
28-Sep-23 12:58 32.818236 -112.390767 123 12974ft 146kts
28-Sep-23 12:59 32.797972 -112.348100 123 12974ft 146kts
28-Sep-23 13:00 32.777763 -112.305578 123 12976ft 146kts
28-Sep-23 13:01 32.757636 -112.263190 123 12985ft 146kts
28-Sep-23 13:02 32.737528 -112.220793 123 12995ft 145kts
28-Sep-23 13:03 32.717499 -112.178535 123 13005ft 145kts
28-Sep-23 13:04 32.697360 -112.135994 123 13014ft 145kts
28-Sep-23 13:05 32.677320 -112.093637 123 13024ft 145kts
28-Sep-23 13:06 32.657069 -112.051220 124 13028ft 146kts
28-Sep-23 13:07 32.636152 -112.008805 124 13028ft 146kts
28-Sep-23 13:08 32.615190 -111.966302 124 13028ft 146kts
28-Sep-23 13:09 32.594345 -111.924024 124 13028ft 146kts
28-Sep-23 13:10 32.573610 -111.881955 124 13028ft 146kts
28-Sep-23 13:11 32.552853 -111.839817 124 13028ft 146kts
28-Sep-23 13:12 32.532007 -111.797497 123 13004ft 147kts
28-Sep-23 13:13 32.511163 -111.755116 123 13009ft 146kts
28-Sep-23 13:14 32.490378 -111.712808 123 13014ft 146kts
28-Sep-23 13:15 32.469627 -111.670513 123 13019ft 145kts
28-Sep-23 13:16 32.449048 -111.628538 123 13024ft 145kts
28-Sep-23 13:17 32.428643 -111.586942 124 13027ft 145kts
28-Sep-23 13:18 32.407459 -111.545460 124 13026ft 145kts
28-Sep-23 13:19 32.386184 -111.503797 124 13023ft 146kts
28-Sep-23 13:20 32.366106 -111.463101 124 12819ft 139kts
28-Sep-23 13:21 32.344729 -111.421098 125 12125ft 149kts
28-Sep-23 13:22 32.321198 -111.378085 124 11344ft 159kts
28-Sep-23 13:23 32.297502 -111.331794 124 10415ft 162kts
28-Sep-23 13:24 32.276673 -111.283746 122 9554ft 161kts
28-Sep-23 13:25 32.254570 -111.237304 125 8626ft 160kts
28-Sep-23 13:26 32.232367 -111.191157 123 7689ft 159kts
28-Sep-23 13:27 32.211214 -111.144586 122 7099ft 158kts
28-Sep-23 13:28 32.186740 -111.099605 125 7083ft 157kts
28-Sep-23 13:29 32.164102 -111.053563 123 7013ft 163kts
28-Sep-23 13:30 32.143248 -111.010117 126 7035ft 137kts
28-Sep-23 13:31 32.124727 -110.973140 126 7001ft 125kts
28-Sep-23 13:32 32.107220 -110.938747 126 6979ft 121kts
28-Sep-23 13:33 32.084828 -110.919746 199 6987ft 102kts
28-Sep-23 13:34 32.057367 -110.929561 197 6993ft 101kts
28-Sep-23 13:35 32.029792 -110.939056 198 7001ft 105kts
28-Sep-23 13:36 32.002258 -110.948641 197 7052ft 103kts
28-Sep-23 13:37 31.974541 -110.958503 200 7091ft 102kts
28-Sep-23 13:38 31.947045 -110.968751 195 7040ft 102kts
28-Sep-23 13:39 31.920266 -110.957683 143 6692ft 115kts
28-Sep-23 13:40 31.897686 -110.931066 140 6381ft 113kts
28-Sep-23 13:41 31.875005 -110.904905 136 6070ft 114kts
28-Sep-23 13:42 31.880192 -110.869371 46 5876ft 125kts
28-Sep-23 13:43 31.904735 -110.840438 43 5952ft 125kts
28-Sep-23 13:44 31.929738 -110.811530 43 5753ft 127kts
28-Sep-23 13:45 31.955055 -110.782414 43 5442ft 128kts
28-Sep-23 13:46 31.983525 -110.778450 301 5226ft 108kts
28-Sep-23 13:47 32.002758 -110.806213 303 4938ft 108kts
28-Sep-23 13:48 32.024406 -110.831162 309 4669ft 109kts
28-Sep-23 13:49 32.045559 -110.856200 304 4268ft 110kts
28-Sep-23 13:50 32.067364 -110.882453 306 3767ft 110kts
28-Sep-23 13:51 32.086443 -110.904559 311 3232ft 91kts
28-Sep-23 13:52 32.103712 -110.924782 313 2660ft 81kts
28-Sep-23 13:53 32.115212 -110.938362 313 2605ft 35kts
28-Sep-23 13:54 32.119458 -110.943298 317 2590ft 15kts
28-Sep-23 13:55 32.120311 -110.946378 224 2582ft 12kts
28-Sep-23 13:56 32.116796 -110.950523 225 2578ft 13kts
28-Sep-23 13:57 32.115837 -110.954147 270 2572ft 10kts
28-Sep-23 13:58 32.114967 -110.955361 94 2568ft 5kts

Navigation Log

Ident Type
Flight plan parsing failed, navigation log unavailable